sensor_id;sensor_type;location;lat;lon;timestamp;P1;durP1;ratioP1;P2;durP2;ratioP2
38312;SDS011;24114;52.260;6.714;2022-10-17T00:00:32;5.80;;;5.30;;
38312;SDS011;24114;52.260;6.714;2022-10-17T00:03:00;6.95;;;6.35;;
38312;SDS011;24114;52.260;6.714;2022-10-17T00:05:29;5.90;;;5.35;;
38312;SDS011;24114;52.260;6.714;2022-10-17T00:07:57;6.35;;;5.82;;
38312;SDS011;24114;52.260;6.714;2022-10-17T00:10:24;5.70;;;5.18;;
38312;SDS011;24114;52.260;6.714;2022-10-17T00:12:52;6.03;;;5.53;;
38312;SDS011;24114;52.260;6.714;2022-10-17T00:15:20;6.82;;;6.22;;
38312;SDS011;24114;52.260;6.714;2022-10-17T00:17:48;7.45;;;6.68;;
38312;SDS011;24114;52.260;6.714;2022-10-17T00:20:16;6.63;;;6.00;;
38312;SDS011;24114;52.260;6.714;2022-10-17T00:22:45;6.60;;;6.10;;
38312;SDS011;24114;52.260;6.714;2022-10-17T00:25:12;6.93;;;6.35;;
38312;SDS011;24114;52.260;6.714;2022-10-17T00:27:40;7.23;;;6.63;;
38312;SDS011;24114;52.260;6.714;2022-10-17T00:30:09;6.47;;;6.00;;
38312;SDS011;24114;52.260;6.714;2022-10-17T00:32:38;6.57;;;6.07;;
38312;SDS011;24114;52.260;6.714;2022-10-17T00:35:06;6.95;;;6.25;;
38312;SDS011;24114;52.260;6.714;2022-10-17T00:37:34;6.53;;;6.05;;
38312;SDS011;24114;52.260;6.714;2022-10-17T00:40:04;7.30;;;6.55;;
38312;SDS011;24114;52.260;6.714;2022-10-17T00:42:33;7.10;;;6.40;;
38312;SDS011;24114;52.260;6.714;2022-10-17T00:45:06;7.22;;;6.53;;
38312;SDS011;24114;52.260;6.714;2022-10-17T00:47:40;7.97;;;6.93;;
38312;SDS011;24114;52.260;6.714;2022-10-17T00:50:08;7.20;;;6.50;;
38312;SDS011;24114;52.260;6.714;2022-10-17T00:52:36;7.50;;;6.90;;
38312;SDS011;24114;52.260;6.714;2022-10-17T00:55:07;7.70;;;7.03;;
38312;SDS011;24114;52.260;6.714;2022-10-17T00:57:36;7.50;;;6.72;;
38312;SDS011;24114;52.260;6.714;2022-10-17T01:00:07;7.10;;;6.60;;
38312;SDS011;24114;52.260;6.714;2022-10-17T01:02:36;6.78;;;6.18;;
38312;SDS011;24114;52.260;6.714;2022-10-17T01:05:04;7.55;;;6.75;;
38312;SDS011;24114;52.260;6.714;2022-10-17T01:07:32;7.32;;;6.72;;
38312;SDS011;24114;52.260;6.714;2022-10-17T01:10:03;7.57;;;6.88;;
38312;SDS011;24114;52.260;6.714;2022-10-17T01:12:34;7.37;;;6.87;;
38312;SDS011;24114;52.260;6.714;2022-10-17T01:15:09;7.10;;;6.50;;
38312;SDS011;24114;52.260;6.714;2022-10-17T01:17:42;7.10;;;6.40;;
38312;SDS011;24114;52.260;6.714;2022-10-17T01:20:22;7.45;;;6.75;;
38312;SDS011;24114;52.260;6.714;2022-10-17T01:23:15;7.50;;;6.90;;
38312;SDS011;24114;52.260;6.714;2022-10-17T01:25:51;8.55;;;7.75;;
38312;SDS011;24114;52.260;6.714;2022-10-17T01:28:30;8.23;;;7.53;;
38312;SDS011;24114;52.260;6.714;2022-10-17T01:31:10;7.38;;;6.72;;
38312;SDS011;24114;52.260;6.714;2022-10-17T01:33:42;8.20;;;7.50;;
38312;SDS011;24114;52.260;6.714;2022-10-17T01:36:15;7.97;;;7.32;;
38312;SDS011;24114;52.260;6.714;2022-10-17T01:38:52;8.15;;;7.47;;
38312;SDS011;24114;52.260;6.714;2022-10-17T01:41:26;8.38;;;7.60;;
38312;SDS011;24114;52.260;6.714;2022-10-17T01:44:02;8.95;;;8.15;;
38312;SDS011;24114;52.260;6.714;2022-10-17T01:46:36;8.80;;;7.63;;
38312;SDS011;24114;52.260;6.714;2022-10-17T01:49:05;10.77;;;8.30;;
38312;SDS011;24114;52.260;6.714;2022-10-17T01:51:35;8.15;;;7.35;;
38312;SDS011;24114;52.260;6.714;2022-10-17T01:54:05;8.65;;;7.95;;
38312;SDS011;24114;52.260;6.714;2022-10-17T01:56:37;9.60;;;7.40;;
38312;SDS011;24114;52.260;6.714;2022-10-17T01:59:06;8.13;;;7.53;;
38312;SDS011;24114;52.260;6.714;2022-10-17T02:01:39;8.00;;;7.30;;
38312;SDS011;24114;52.260;6.714;2022-10-17T02:04:08;9.30;;;8.40;;
38312;SDS011;24114;52.260;6.714;2022-10-17T02:06:37;8.13;;;7.43;;
38312;SDS011;24114;52.260;6.714;2022-10-17T02:09:18;8.63;;;7.82;;
38312;SDS011;24114;52.260;6.714;2022-10-17T02:11:49;9.25;;;8.27;;
38312;SDS011;24114;52.260;6.714;2022-10-17T02:14:31;8.32;;;7.53;;
38312;SDS011;24114;52.260;6.714;2022-10-17T02:17:07;9.15;;;8.35;;
38312;SDS011;24114;52.260;6.714;2022-10-17T02:19:40;8.52;;;7.72;;
38312;SDS011;24114;52.260;6.714;2022-10-17T02:22:15;8.50;;;7.80;;
38312;SDS011;24114;52.260;6.714;2022-10-17T02:24:47;8.30;;;7.50;;
38312;SDS011;24114;52.260;6.714;2022-10-17T02:27:19;8.15;;;7.50;;
38312;SDS011;24114;52.260;6.714;2022-10-17T02:29:53;8.35;;;7.63;;
38312;SDS011;24114;52.260;6.714;2022-10-17T02:32:25;8.23;;;7.55;;
38312;SDS011;24114;52.260;6.714;2022-10-17T02:34:57;8.57;;;7.75;;
38312;SDS011;24114;52.260;6.714;2022-10-17T02:37:27;8.90;;;8.20;;
38312;SDS011;24114;52.260;6.714;2022-10-17T02:39:57;7.88;;;7.18;;
38312;SDS011;24114;52.260;6.714;2022-10-17T02:42:25;7.65;;;6.95;;
38312;SDS011;24114;52.260;6.714;2022-10-17T02:44:54;8.73;;;8.02;;
38312;SDS011;24114;52.260;6.714;2022-10-17T02:47:28;7.97;;;7.38;;
38312;SDS011;24114;52.260;6.714;2022-10-17T02:49:59;8.53;;;7.83;;
38312;SDS011;24114;52.260;6.714;2022-10-17T02:52:28;8.43;;;7.63;;
38312;SDS011;24114;52.260;6.714;2022-10-17T02:55:00;9.07;;;8.27;;
38312;SDS011;24114;52.260;6.714;2022-10-17T02:57:31;9.05;;;8.25;;
38312;SDS011;24114;52.260;6.714;2022-10-17T03:00:03;8.80;;;8.02;;
38312;SDS011;24114;52.260;6.714;2022-10-17T03:02:39;8.43;;;7.80;;
38312;SDS011;24114;52.260;6.714;2022-10-17T03:05:07;9.50;;;8.68;;
38312;SDS011;24114;52.260;6.714;2022-10-17T03:07:35;9.60;;;8.80;;
38312;SDS011;24114;52.260;6.714;2022-10-17T03:10:03;9.50;;;8.68;;
38312;SDS011;24114;52.260;6.714;2022-10-17T03:12:32;9.48;;;8.68;;
38312;SDS011;24114;52.260;6.714;2022-10-17T03:14:59;9.60;;;8.60;;
38312;SDS011;24114;52.260;6.714;2022-10-17T03:17:27;9.13;;;8.32;;
38312;SDS011;24114;52.260;6.714;2022-10-17T03:19:56;10.40;;;9.40;;
38312;SDS011;24114;52.260;6.714;2022-10-17T03:22:24;8.75;;;7.95;;
38312;SDS011;24114;52.260;6.714;2022-10-17T03:24:52;9.80;;;8.95;;
38312;SDS011;24114;52.260;6.714;2022-10-17T03:27:20;9.75;;;8.75;;
38312;SDS011;24114;52.260;6.714;2022-10-17T03:29:47;10.30;;;9.32;;
38312;SDS011;24114;52.260;6.714;2022-10-17T03:32:15;9.43;;;8.52;;
38312;SDS011;24114;52.260;6.714;2022-10-17T03:34:43;9.60;;;8.70;;
38312;SDS011;24114;52.260;6.714;2022-10-17T03:37:12;10.95;;;9.18;;
38312;SDS011;24114;52.260;6.714;2022-10-17T03:39:40;9.63;;;8.70;;
38312;SDS011;24114;52.260;6.714;2022-10-17T03:42:07;9.25;;;8.45;;
38312;SDS011;24114;52.260;6.714;2022-10-17T03:44:35;9.40;;;8.57;;
38312;SDS011;24114;52.260;6.714;2022-10-17T03:47:03;10.57;;;9.55;;
38312;SDS011;24114;52.260;6.714;2022-10-17T03:49:35;9.77;;;8.88;;
38312;SDS011;24114;52.260;6.714;2022-10-17T03:52:03;9.77;;;8.77;;
38312;SDS011;24114;52.260;6.714;2022-10-17T03:54:32;10.07;;;9.07;;
38312;SDS011;24114;52.260;6.714;2022-10-17T03:57:00;9.50;;;8.55;;
38312;SDS011;24114;52.260;6.714;2022-10-17T03:59:27;10.00;;;9.10;;
38312;SDS011;24114;52.260;6.714;2022-10-17T04:01:55;10.20;;;8.77;;
38312;SDS011;24114;52.260;6.714;2022-10-17T04:04:23;9.93;;;9.00;;
38312;SDS011;24114;52.260;6.714;2022-10-17T04:06:51;9.77;;;8.95;;
38312;SDS011;24114;52.260;6.714;2022-10-17T04:09:18;9.55;;;8.65;;
38312;SDS011;24114;52.260;6.714;2022-10-17T04:11:47;9.77;;;8.88;;
38312;SDS011;24114;52.260;6.714;2022-10-17T04:14:15;9.47;;;8.63;;
38312;SDS011;24114;52.260;6.714;2022-10-17T04:16:43;9.77;;;8.77;;
38312;SDS011;24114;52.260;6.714;2022-10-17T04:19:10;9.73;;;8.77;;
38312;SDS011;24114;52.260;6.714;2022-10-17T04:21:39;10.00;;;9.05;;
38312;SDS011;24114;52.260;6.714;2022-10-17T04:24:08;9.65;;;8.75;;
38312;SDS011;24114;52.260;6.714;2022-10-17T04:26:36;10.13;;;9.00;;
38312;SDS011;24114;52.260;6.714;2022-10-17T04:29:05;10.00;;;9.00;;
38312;SDS011;24114;52.260;6.714;2022-10-17T04:31:33;9.40;;;8.45;;
38312;SDS011;24114;52.260;6.714;2022-10-17T04:34:01;10.23;;;9.13;;
38312;SDS011;24114;52.260;6.714;2022-10-17T04:36:28;9.48;;;8.57;;
38312;SDS011;24114;52.260;6.714;2022-10-17T04:38:56;10.52;;;9.43;;
38312;SDS011;24114;52.260;6.714;2022-10-17T04:41:24;9.02;;;7.85;;
38312;SDS011;24114;52.260;6.714;2022-10-17T04:43:52;10.98;;;9.88;;
38312;SDS011;24114;52.260;6.714;2022-10-17T04:46:21;11.18;;;9.20;;
38312;SDS011;24114;52.260;6.714;2022-10-17T04:48:49;9.80;;;8.88;;
38312;SDS011;24114;52.260;6.714;2022-10-17T04:51:17;9.77;;;8.23;;
38312;SDS011;24114;52.260;6.714;2022-10-17T04:53:49;9.88;;;8.88;;
38312;SDS011;24114;52.260;6.714;2022-10-17T04:56:18;10.27;;;8.73;;
38312;SDS011;24114;52.260;6.714;2022-10-17T04:58:46;9.85;;;8.38;;
38312;SDS011;24114;52.260;6.714;2022-10-17T05:01:15;8.77;;;7.90;;
38312;SDS011;24114;52.260;6.714;2022-10-17T05:03:45;9.95;;;8.95;;
38312;SDS011;24114;52.260;6.714;2022-10-17T05:06:14;9.68;;;8.40;;
38312;SDS011;24114;52.260;6.714;2022-10-17T05:08:43;10.17;;;8.97;;
38312;SDS011;24114;52.260;6.714;2022-10-17T05:11:17;8.93;;;8.13;;
38312;SDS011;24114;52.260;6.714;2022-10-17T05:13:48;10.23;;;9.23;;
38312;SDS011;24114;52.260;6.714;2022-10-17T05:16:17;9.20;;;8.23;;
38312;SDS011;24114;52.260;6.714;2022-10-17T05:18:48;10.35;;;8.80;;
38312;SDS011;24114;52.260;6.714;2022-10-17T05:21:18;9.47;;;8.57;;
38312;SDS011;24114;52.260;6.714;2022-10-17T05:23:46;11.25;;;9.10;;
38312;SDS011;24114;52.260;6.714;2022-10-17T05:26:14;9.05;;;8.25;;
38312;SDS011;24114;52.260;6.714;2022-10-17T05:28:42;10.60;;;8.70;;
38312;SDS011;24114;52.260;6.714;2022-10-17T05:31:10;10.30;;;8.88;;
38312;SDS011;24114;52.260;6.714;2022-10-17T05:33:38;9.48;;;8.60;;
38312;SDS011;24114;52.260;6.714;2022-10-17T05:36:07;10.85;;;8.70;;
38312;SDS011;24114;52.260;6.714;2022-10-17T05:38:35;9.88;;;8.88;;
38312;SDS011;24114;52.260;6.714;2022-10-17T05:41:03;9.37;;;8.37;;
38312;SDS011;24114;52.260;6.714;2022-10-17T05:43:32;8.65;;;7.85;;
38312;SDS011;24114;52.260;6.714;2022-10-17T05:46:02;9.18;;;8.05;;
38312;SDS011;24114;52.260;6.714;2022-10-17T05:48:30;9.75;;;8.45;;
38312;SDS011;24114;52.260;6.714;2022-10-17T05:50:58;10.48;;;8.90;;
38312;SDS011;24114;52.260;6.714;2022-10-17T05:53:30;9.53;;;8.53;;
38312;SDS011;24114;52.260;6.714;2022-10-17T05:55:59;8.88;;;8.05;;
38312;SDS011;24114;52.260;6.714;2022-10-17T05:58:27;8.88;;;8.02;;
38312;SDS011;24114;52.260;6.714;2022-10-17T06:01:15;10.30;;;8.70;;
38312;SDS011;24114;52.260;6.714;2022-10-17T06:03:42;9.57;;;8.50;;
38312;SDS011;24114;52.260;6.714;2022-10-17T06:06:11;9.48;;;8.20;;
38312;SDS011;24114;52.260;6.714;2022-10-17T06:08:41;9.10;;;8.20;;
38312;SDS011;24114;52.260;6.714;2022-10-17T06:11:09;8.73;;;7.87;;
38312;SDS011;24114;52.260;6.714;2022-10-17T06:13:36;9.30;;;8.32;;
38312;SDS011;24114;52.260;6.714;2022-10-17T06:16:05;8.52;;;7.63;;
38312;SDS011;24114;52.260;6.714;2022-10-17T06:18:33;10.05;;;8.55;;
38312;SDS011;24114;52.260;6.714;2022-10-17T06:21:01;9.57;;;8.05;;
38312;SDS011;24114;52.260;6.714;2022-10-17T06:23:29;8.37;;;7.60;;
38312;SDS011;24114;52.260;6.714;2022-10-17T06:25:59;9.30;;;7.70;;
38312;SDS011;24114;52.260;6.714;2022-10-17T06:28:27;10.45;;;8.32;;
38312;SDS011;24114;52.260;6.714;2022-10-17T06:30:55;10.00;;;7.82;;
38312;SDS011;24114;52.260;6.714;2022-10-17T06:33:23;8.70;;;7.90;;
38312;SDS011;24114;52.260;6.714;2022-10-17T06:35:51;8.43;;;7.53;;
38312;SDS011;24114;52.260;6.714;2022-10-17T06:38:18;10.10;;;7.38;;
38312;SDS011;24114;52.260;6.714;2022-10-17T06:40:46;8.98;;;7.93;;
38312;SDS011;24114;52.260;6.714;2022-10-17T06:43:15;9.00;;;7.65;;
38312;SDS011;24114;52.260;6.714;2022-10-17T06:45:44;8.93;;;7.63;;
38312;SDS011;24114;52.260;6.714;2022-10-17T06:48:12;10.03;;;7.73;;
38312;SDS011;24114;52.260;6.714;2022-10-17T06:50:40;8.77;;;7.78;;
38312;SDS011;24114;52.260;6.714;2022-10-17T06:53:08;10.80;;;7.70;;
38312;SDS011;24114;52.260;6.714;2022-10-17T06:55:36;9.32;;;7.32;;
38312;SDS011;24114;52.260;6.714;2022-10-17T06:58:03;7.73;;;6.97;;
38312;SDS011;24114;52.260;6.714;2022-10-17T07:00:32;9.48;;;6.90;;
38312;SDS011;24114;52.260;6.714;2022-10-17T07:03:00;10.90;;;7.55;;
38312;SDS011;24114;52.260;6.714;2022-10-17T07:05:28;9.50;;;7.20;;
38312;SDS011;24114;52.260;6.714;2022-10-17T07:07:56;8.50;;;6.82;;
38312;SDS011;24114;52.260;6.714;2022-10-17T07:10:23;10.10;;;7.10;;
38312;SDS011;24114;52.260;6.714;2022-10-17T07:12:52;9.48;;;7.28;;
38312;SDS011;24114;52.260;6.714;2022-10-17T07:15:20;8.27;;;6.70;;
38312;SDS011;24114;52.260;6.714;2022-10-17T07:17:49;9.05;;;6.90;;
38312;SDS011;24114;52.260;6.714;2022-10-17T07:20:17;9.25;;;6.75;;
38312;SDS011;24114;52.260;6.714;2022-10-17T07:22:44;9.65;;;6.95;;
38312;SDS011;24114;52.260;6.714;2022-10-17T07:25:12;10.80;;;6.95;;
38312;SDS011;24114;52.260;6.714;2022-10-17T07:27:40;9.23;;;6.85;;
38312;SDS011;24114;52.260;6.714;2022-10-17T07:30:08;7.85;;;6.88;;
38312;SDS011;24114;52.260;6.714;2022-10-17T07:32:36;7.57;;;6.88;;
38312;SDS011;24114;52.260;6.714;2022-10-17T07:35:06;7.53;;;6.82;;
38312;SDS011;24114;52.260;6.714;2022-10-17T07:37:34;7.38;;;6.32;;
38312;SDS011;24114;52.260;6.714;2022-10-17T07:40:02;7.30;;;6.50;;
38312;SDS011;24114;52.260;6.714;2022-10-17T07:42:30;7.32;;;6.22;;
38312;SDS011;24114;52.260;6.714;2022-10-17T07:44:57;7.13;;;6.43;;
38312;SDS011;24114;52.260;6.714;2022-10-17T07:47:25;9.95;;;6.78;;
38312;SDS011;24114;52.260;6.714;2022-10-17T07:49:56;9.45;;;6.45;;
38312;SDS011;24114;52.260;6.714;2022-10-17T07:52:26;8.23;;;6.03;;
38312;SDS011;24114;52.260;6.714;2022-10-17T07:54:54;9.23;;;6.50;;
38312;SDS011;24114;52.260;6.714;2022-10-17T07:57:21;7.32;;;6.38;;
38312;SDS011;24114;52.260;6.714;2022-10-17T07:59:49;7.20;;;5.93;;
38312;SDS011;24114;52.260;6.714;2022-10-17T08:02:19;7.25;;;5.85;;
38312;SDS011;24114;52.260;6.714;2022-10-17T08:04:48;6.53;;;5.90;;
38312;SDS011;24114;52.260;6.714;2022-10-17T08:07:16;7.40;;;6.60;;
38312;SDS011;24114;52.260;6.714;2022-10-17T08:09:53;8.70;;;6.47;;
38312;SDS011;24114;52.260;6.714;2022-10-17T08:12:21;7.85;;;6.07;;
38312;SDS011;24114;52.260;6.714;2022-10-17T08:14:50;7.13;;;5.70;;
38312;SDS011;24114;52.260;6.714;2022-10-17T08:17:17;6.68;;;5.93;;
38312;SDS011;24114;52.260;6.714;2022-10-17T08:19:45;7.72;;;6.30;;
38312;SDS011;24114;52.260;6.714;2022-10-17T08:22:13;7.50;;;6.60;;
38312;SDS011;24114;52.260;6.714;2022-10-17T08:24:40;7.30;;;5.82;;
38312;SDS011;24114;52.260;6.714;2022-10-17T08:27:11;8.07;;;6.30;;
38312;SDS011;24114;52.260;6.714;2022-10-17T08:29:39;7.90;;;6.10;;
38312;SDS011;24114;52.260;6.714;2022-10-17T08:32:07;7.22;;;6.38;;
38312;SDS011;24114;52.260;6.714;2022-10-17T08:34:35;9.05;;;6.25;;
38312;SDS011;24114;52.260;6.714;2022-10-17T08:37:03;8.02;;;6.13;;
38312;SDS011;24114;52.260;6.714;2022-10-17T08:39:31;7.53;;;6.38;;
38312;SDS011;24114;52.260;6.714;2022-10-17T08:42:02;7.80;;;5.83;;
38312;SDS011;24114;52.260;6.714;2022-10-17T08:44:41;8.27;;;6.70;;
38312;SDS011;24114;52.260;6.714;2022-10-17T08:47:15;6.90;;;6.20;;
38312;SDS011;24114;52.260;6.714;2022-10-17T08:49:47;9.00;;;6.88;;
38312;SDS011;24114;52.260;6.714;2022-10-17T08:52:19;7.80;;;7.00;;
38312;SDS011;24114;52.260;6.714;2022-10-17T08:54:51;7.07;;;6.37;;
38312;SDS011;24114;52.260;6.714;2022-10-17T08:57:18;9.93;;;6.63;;
38312;SDS011;24114;52.260;6.714;2022-10-17T08:59:50;7.63;;;6.60;;
38312;SDS011;24114;52.260;6.714;2022-10-17T09:02:21;9.10;;;6.18;;
38312;SDS011;24114;52.260;6.714;2022-10-17T09:05:21;7.65;;;6.43;;
38312;SDS011;24114;52.260;6.714;2022-10-17T09:07:53;8.48;;;6.30;;
38312;SDS011;24114;52.260;6.714;2022-10-17T09:10:27;6.88;;;5.97;;
38312;SDS011;24114;52.260;6.714;2022-10-17T09:13:04;6.30;;;5.70;;
38312;SDS011;24114;52.260;6.714;2022-10-17T09:15:40;7.32;;;5.90;;
38312;SDS011;24114;52.260;6.714;2022-10-17T09:18:14;8.65;;;6.03;;
38312;SDS011;24114;52.260;6.714;2022-10-17T09:20:48;9.43;;;6.57;;
38312;SDS011;24114;52.260;6.714;2022-10-17T09:23:19;8.00;;;5.90;;
38312;SDS011;24114;52.260;6.714;2022-10-17T09:25:49;8.55;;;6.13;;
38312;SDS011;24114;52.260;6.714;2022-10-17T09:28:19;9.40;;;6.43;;
38312;SDS011;24114;52.260;6.714;2022-10-17T09:30:50;8.95;;;6.13;;
38312;SDS011;24114;52.260;6.714;2022-10-17T09:33:23;7.30;;;6.00;;
38312;SDS011;24114;52.260;6.714;2022-10-17T09:36:09;8.77;;;6.53;;
38312;SDS011;24114;52.260;6.714;2022-10-17T09:38:40;7.70;;;6.37;;
38312;SDS011;24114;52.260;6.714;2022-10-17T09:41:14;6.85;;;6.00;;
38312;SDS011;24114;52.260;6.714;2022-10-17T09:44:08;7.00;;;6.30;;
38312;SDS011;24114;52.260;6.714;2022-10-17T09:46:42;9.57;;;6.78;;
38312;SDS011;24114;52.260;6.714;2022-10-17T09:49:16;8.52;;;6.80;;
38312;SDS011;24114;52.260;6.714;2022-10-17T09:51:46;7.53;;;6.28;;
38312;SDS011;24114;52.260;6.714;2022-10-17T09:54:17;7.47;;;6.43;;
38312;SDS011;24114;52.260;6.714;2022-10-17T09:56:57;7.78;;;6.97;;
38312;SDS011;24114;52.260;6.714;2022-10-17T09:59:30;6.88;;;6.28;;
38312;SDS011;24114;52.260;6.714;2022-10-17T10:02:15;6.75;;;6.15;;
38312;SDS011;24114;52.260;6.714;2022-10-17T10:04:51;7.45;;;6.30;;
38312;SDS011;24114;52.260;6.714;2022-10-17T10:07:36;8.75;;;6.30;;
38312;SDS011;24114;52.260;6.714;2022-10-17T10:10:05;6.55;;;5.93;;
38312;SDS011;24114;52.260;6.714;2022-10-17T10:12:35;9.77;;;6.70;;
38312;SDS011;24114;52.260;6.714;2022-10-17T10:17:58;7.93;;;6.45;;
38312;SDS011;24114;52.260;6.714;2022-10-17T10:20:28;8.60;;;7.03;;
38312;SDS011;24114;52.260;6.714;2022-10-17T10:23:10;8.00;;;7.10;;
38312;SDS011;24114;52.260;6.714;2022-10-17T10:25:47;9.63;;;7.75;;
38312;SDS011;24114;52.260;6.714;2022-10-17T10:28:19;9.18;;;8.07;;
38312;SDS011;24114;52.260;6.714;2022-10-17T10:30:48;9.27;;;7.30;;
38312;SDS011;24114;52.260;6.714;2022-10-17T10:33:19;9.55;;;7.57;;
38312;SDS011;24114;52.260;6.714;2022-10-17T10:35:53;10.67;;;7.83;;
38312;SDS011;24114;52.260;6.714;2022-10-17T10:38:22;7.55;;;6.78;;
38312;SDS011;24114;52.260;6.714;2022-10-17T10:40:51;8.73;;;7.63;;
38312;SDS011;24114;52.260;6.714;2022-10-17T10:43:21;10.95;;;8.18;;
38312;SDS011;24114;52.260;6.714;2022-10-17T10:45:51;8.93;;;7.65;;
38312;SDS011;24114;52.260;6.714;2022-10-17T10:48:21;10.38;;;8.32;;
38312;SDS011;24114;52.260;6.714;2022-10-17T10:50:51;9.27;;;8.25;;
38312;SDS011;24114;52.260;6.714;2022-10-17T10:53:35;9.90;;;9.05;;
38312;SDS011;24114;52.260;6.714;2022-10-17T10:56:10;8.90;;;8.00;;
38312;SDS011;24114;52.260;6.714;2022-10-17T10:58:45;9.77;;;8.90;;
38312;SDS011;24114;52.260;6.714;2022-10-17T11:01:18;9.30;;;8.40;;
38312;SDS011;24114;52.260;6.714;2022-10-17T11:04:00;9.48;;;8.40;;
38312;SDS011;24114;52.260;6.714;2022-10-17T11:06:33;10.47;;;9.37;;
38312;SDS011;24114;52.260;6.714;2022-10-17T11:09:05;9.75;;;8.75;;
38312;SDS011;24114;52.260;6.714;2022-10-17T11:11:40;13.57;;;9.10;;
38312;SDS011;24114;52.260;6.714;2022-10-17T11:14:11;9.55;;;8.57;;
38312;SDS011;24114;52.260;6.714;2022-10-17T11:16:43;10.32;;;9.23;;
38312;SDS011;24114;52.260;6.714;2022-10-17T11:19:15;9.80;;;8.80;;
38312;SDS011;24114;52.260;6.714;2022-10-17T11:21:47;10.70;;;9.60;;
38312;SDS011;24114;52.260;6.714;2022-10-17T11:24:20;10.30;;;9.32;;
38312;SDS011;24114;52.260;6.714;2022-10-17T11:26:53;10.30;;;9.30;;
38312;SDS011;24114;52.260;6.714;2022-10-17T11:29:22;10.02;;;9.02;;
38312;SDS011;24114;52.260;6.714;2022-10-17T11:31:53;10.85;;;9.75;;
38312;SDS011;24114;52.260;6.714;2022-10-17T11:34:25;10.38;;;9.35;;
38312;SDS011;24114;52.260;6.714;2022-10-17T11:36:54;12.02;;;9.52;;
38312;SDS011;24114;52.260;6.714;2022-10-17T11:39:26;10.80;;;9.70;;
38312;SDS011;24114;52.260;6.714;2022-10-17T11:41:57;10.57;;;9.57;;
38312;SDS011;24114;52.260;6.714;2022-10-17T11:44:30;11.93;;;10.20;;
38312;SDS011;24114;52.260;6.714;2022-10-17T11:47:03;11.73;;;10.35;;
38312;SDS011;24114;52.260;6.714;2022-10-17T11:49:35;12.32;;;11.07;;
38312;SDS011;24114;52.260;6.714;2022-10-17T11:52:10;13.82;;;12.32;;
38312;SDS011;24114;52.260;6.714;2022-10-17T11:55:09;15.75;;;12.35;;
38312;SDS011;24114;52.260;6.714;2022-10-17T11:57:41;16.98;;;12.95;;
38312;SDS011;24114;52.260;6.714;2022-10-17T12:00:24;16.45;;;13.93;;
38312;SDS011;24114;52.260;6.714;2022-10-17T12:03:02;16.27;;;14.32;;
38312;SDS011;24114;52.260;6.714;2022-10-17T12:05:36;16.40;;;13.50;;
38312;SDS011;24114;52.260;6.714;2022-10-17T12:08:08;15.77;;;13.90;;
38312;SDS011;24114;52.260;6.714;2022-10-17T12:10:42;16.17;;;14.00;;
38312;SDS011;24114;52.260;6.714;2022-10-17T12:22:16;16.93;;;14.90;;
38312;SDS011;24114;52.260;6.714;2022-10-17T12:24:52;16.35;;;14.65;;
38312;SDS011;24114;52.260;6.714;2022-10-17T12:27:22;16.17;;;14.10;;
38312;SDS011;24114;52.260;6.714;2022-10-17T12:30:06;14.45;;;13.05;;
38312;SDS011;24114;52.260;6.714;2022-10-17T12:32:55;16.95;;;14.50;;
38312;SDS011;24114;52.260;6.714;2022-10-17T12:35:33;15.73;;;14.02;;
38312;SDS011;24114;52.260;6.714;2022-10-17T12:40:56;17.38;;;15.55;;
38312;SDS011;24114;52.260;6.714;2022-10-17T12:43:35;18.17;;;14.45;;
38312;SDS011;24114;52.260;6.714;2022-10-17T12:46:40;16.08;;;14.30;;
38312;SDS011;24114;52.260;6.714;2022-10-17T12:49:20;14.50;;;12.68;;
38312;SDS011;24114;52.260;6.714;2022-10-17T12:54:59;14.63;;;12.75;;
38312;SDS011;24114;52.260;6.714;2022-10-17T12:57:40;15.30;;;13.70;;
38312;SDS011;24114;52.260;6.714;2022-10-17T13:00:20;16.30;;;14.60;;
38312;SDS011;24114;52.260;6.714;2022-10-17T13:02:50;15.27;;;13.18;;
38312;SDS011;24114;52.260;6.714;2022-10-17T13:05:21;17.90;;;13.73;;
38312;SDS011;24114;52.260;6.714;2022-10-17T13:07:53;15.07;;;13.43;;
38312;SDS011;24114;52.260;6.714;2022-10-17T13:10:24;16.80;;;14.40;;
38312;SDS011;24114;52.260;6.714;2022-10-17T13:13:05;14.43;;;12.93;;
38312;SDS011;24114;52.260;6.714;2022-10-17T13:15:33;16.38;;;14.68;;
38312;SDS011;24114;52.260;6.714;2022-10-17T13:18:02;14.80;;;13.30;;
38312;SDS011;24114;52.260;6.714;2022-10-17T13:20:31;15.07;;;13.60;;
38312;SDS011;24114;52.260;6.714;2022-10-17T13:22:59;16.33;;;14.10;;
38312;SDS011;24114;52.260;6.714;2022-10-17T13:25:28;15.68;;;14.02;;
38312;SDS011;24114;52.260;6.714;2022-10-17T13:28:03;14.77;;;13.25;;
38312;SDS011;24114;52.260;6.714;2022-10-17T13:30:33;16.63;;;14.25;;
38312;SDS011;24114;52.260;6.714;2022-10-17T13:33:02;18.08;;;14.40;;
38312;SDS011;24114;52.260;6.714;2022-10-17T13:35:30;14.60;;;13.10;;
38312;SDS011;24114;52.260;6.714;2022-10-17T13:38:21;15.70;;;12.93;;
38312;SDS011;24114;52.260;6.714;2022-10-17T13:40:52;14.00;;;11.90;;
38312;SDS011;24114;52.260;6.714;2022-10-17T13:43:36;15.88;;;13.35;;
38312;SDS011;24114;52.260;6.714;2022-10-17T13:46:04;16.05;;;13.38;;
38312;SDS011;24114;52.260;6.714;2022-10-17T13:48:52;16.50;;;13.80;;
38312;SDS011;24114;52.260;6.714;2022-10-17T13:51:20;15.45;;;13.52;;
38312;SDS011;24114;52.260;6.714;2022-10-17T13:53:48;17.60;;;14.83;;
38312;SDS011;24114;52.260;6.714;2022-10-17T13:56:18;15.80;;;14.07;;
38312;SDS011;24114;52.260;6.714;2022-10-17T13:58:54;15.40;;;13.77;;
38312;SDS011;24114;52.260;6.714;2022-10-17T14:01:23;20.13;;;15.73;;
38312;SDS011;24114;52.260;6.714;2022-10-17T14:03:52;17.30;;;14.43;;
38312;SDS011;24114;52.260;6.714;2022-10-17T14:06:34;17.45;;;15.55;;
38312;SDS011;24114;52.260;6.714;2022-10-17T14:09:05;19.73;;;16.20;;
38312;SDS011;24114;52.260;6.714;2022-10-17T14:11:36;17.55;;;15.75;;
38312;SDS011;24114;52.260;6.714;2022-10-17T14:14:05;21.63;;;17.05;;
38312;SDS011;24114;52.260;6.714;2022-10-17T14:16:35;18.95;;;16.55;;
38312;SDS011;24114;52.260;6.714;2022-10-17T14:19:04;25.48;;;17.95;;
38312;SDS011;24114;52.260;6.714;2022-10-17T14:21:33;17.90;;;15.77;;
38312;SDS011;24114;52.260;6.714;2022-10-17T14:24:14;18.70;;;15.50;;
38312;SDS011;24114;52.260;6.714;2022-10-17T14:26:58;20.70;;;16.00;;
38312;SDS011;24114;52.260;6.714;2022-10-17T14:29:27;16.67;;;14.82;;
38312;SDS011;24114;52.260;6.714;2022-10-17T14:31:56;23.60;;;17.45;;
38312;SDS011;24114;52.260;6.714;2022-10-17T14:34:26;22.27;;;17.03;;
38312;SDS011;24114;52.260;6.714;2022-10-17T14:36:56;17.42;;;15.32;;
38312;SDS011;24114;52.260;6.714;2022-10-17T14:39:25;17.05;;;15.25;;
38312;SDS011;24114;52.260;6.714;2022-10-17T14:41:53;24.92;;;17.98;;
38312;SDS011;24114;52.260;6.714;2022-10-17T14:44:28;18.70;;;15.40;;
38312;SDS011;24114;52.260;6.714;2022-10-17T14:46:59;18.83;;;15.57;;
38312;SDS011;24114;52.260;6.714;2022-10-17T14:49:48;20.85;;;15.20;;
38312;SDS011;24114;52.260;6.714;2022-10-17T14:52:29;16.33;;;14.50;;
38312;SDS011;24114;52.260;6.714;2022-10-17T14:54:58;21.83;;;15.50;;
38312;SDS011;24114;52.260;6.714;2022-10-17T14:57:33;22.13;;;16.33;;
38312;SDS011;24114;52.260;6.714;2022-10-17T15:00:12;18.90;;;15.53;;
38312;SDS011;24114;52.260;6.714;2022-10-17T15:02:40;16.75;;;14.25;;
38312;SDS011;24114;52.260;6.714;2022-10-17T15:05:08;17.98;;;14.88;;
38312;SDS011;24114;52.260;6.714;2022-10-17T15:07:38;18.52;;;14.98;;
38312;SDS011;24114;52.260;6.714;2022-10-17T15:10:08;16.20;;;14.50;;
38312;SDS011;24114;52.260;6.714;2022-10-17T15:12:47;17.60;;;15.18;;
38312;SDS011;24114;52.260;6.714;2022-10-17T15:15:26;17.63;;;15.03;;
38312;SDS011;24114;52.260;6.714;2022-10-17T15:17:54;15.77;;;14.13;;
38312;SDS011;24114;52.260;6.714;2022-10-17T15:20:23;15.57;;;13.63;;
38312;SDS011;24114;52.260;6.714;2022-10-17T15:22:53;15.43;;;13.82;;